Time;durP1;ratioP1;P1;durP2;ratioP2;P2;SDS_P1;SDS_P2;PMS_P1;PMS_P2;Temp;Humidity;BMP_temperature;BMP_pressure;BME280_temperature;BME280_humidity;BME280_pressure;Samples;Min_cycle;Max_cycle;Signal;HPM_P1;HPM_P2
2021/06/11 00:01:06;;;;;;;;;;;13.90;99.90;;;;;;5031250;28;19928;-55
2021/06/11 00:03:31;;;;;;;;;;;13.90;99.90;;;;;;5031001;28;19909;-54
2021/06/11 00:05:57;;;;;;;;;;;13.80;99.90;;;;;;5030805;28;19936;-54
2021/06/11 00:08:22;;;;;;;;;;;13.80;99.90;;;;;;5031520;28;20350;-53
2021/06/11 00:10:48;;;;;;;;;;;13.80;99.90;;;;;;5030116;28;19920;-57
2021/06/11 00:13:13;;;;;;;;;;;13.80;99.90;;;;;;5031144;28;20055;-54
2021/06/11 00:15:39;;;;;;;;;;;13.80;99.90;;;;;;5031124;28;19935;-50
2021/06/11 00:18:05;;;;;;;;;;;13.80;99.90;;;;;;5030787;28;19913;-51
2021/06/11 00:20:31;;;;;;;;;;;13.80;99.90;;;;;;5029926;28;19913;-51
2021/06/11 00:22:56;;;;;;;;;;;13.80;99.90;;;;;;5029483;28;20268;-55
2021/06/11 00:25:23;;;;;;;;;;;13.80;99.90;;;;;;5030419;28;19955;-50
2021/06/11 00:27:49;;;;;;;;;;;13.80;99.90;;;;;;5031122;28;19980;-53
2021/06/11 00:30:15;;;;;;;;;;;13.80;99.90;;;;;;5030934;28;20465;-53
2021/06/11 00:32:41;;;;;;;;;;;13.80;99.90;;;;;;5030764;28;19913;-51
2021/06/11 00:35:07;;;;;;;;;;;13.70;99.90;;;;;;5027739;28;19923;-53
2021/06/11 00:37:32;;;;;;;;;;;13.70;99.90;;;;;;5030799;28;20434;-54
2021/06/11 00:39:58;;;;;;;;;;;13.60;99.90;;;;;;5030262;28;20004;-52
2021/06/11 00:42:24;;;;;;;;;;;13.60;99.90;;;;;;5030482;28;19917;-57
2021/06/11 00:44:50;;;;;;;;;;;13.50;99.90;;;;;;5027442;28;19916;-52
2021/06/11 00:47:15;;;;;;;;;;;13.40;99.90;;;;;;5030346;28;19924;-53
2021/06/11 00:49:41;;;;;;;;;;;13.40;99.90;;;;;;5030581;28;19909;-55
2021/06/11 00:52:08;;;;;;;;;;;13.30;99.90;;;;;;5030050;28;19917;-51
2021/06/11 00:54:34;;;;;;;;;;;13.20;99.90;;;;;;5029325;28;19916;-52
2021/06/11 00:56:59;;;;;;;;;;;13.20;99.90;;;;;;5028906;28;20019;-54
2021/06/11 00:59:26;;;;;;;;;;;13.10;99.90;;;;;;5027650;28;19917;-54
2021/06/11 01:01:51;;;;;;;;;;;13.10;99.90;;;;;;5025080;28;19919;-51
2021/06/11 01:04:17;;;;;;;;;;;13.10;99.90;;;;;;5028430;28;19910;-58
2021/06/11 01:06:43;;;;;;;;;;;13.10;99.90;;;;;;5029933;28;19916;-56
2021/06/11 01:09:10;;;;;;;;;;;13.00;99.90;;;;;;5029768;28;20013;-53
2021/06/11 01:11:37;;;;;;;;;;;13.00;99.90;;;;;;5029812;28;19935;-55
2021/06/11 01:14:03;;;;;;;;;;;13.00;99.90;;;;;;5028432;28;19909;-53
2021/06/11 01:16:29;;;;;;;;;;;13.00;99.90;;;;;;5029772;28;19909;-54
2021/06/11 01:18:54;;;;;;;;;;;13.00;99.90;;;;;;5030014;28;19913;-54
2021/06/11 01:21:20;;;;;;;;;;;13.00;99.90;;;;;;5029633;28;19963;-56
2021/06/11 01:23:58;;;;;;;;;;;13.00;99.90;;;;;;5029681;28;19920;-53
2021/06/11 01:26:24;;;;;;;;;;;13.00;99.90;;;;;;5028060;28;20399;-53
2021/06/11 01:28:51;;;;;;;;;;;13.00;99.90;;;;;;5029820;28;19909;-55
2021/06/11 01:31:17;;;;;;;;;;;13.00;99.90;;;;;;5027942;28;19955;-50
2021/06/11 01:33:43;;;;;;;;;;;13.00;99.90;;;;;;5029733;28;19920;-52
2021/06/11 01:36:10;;;;;;;;;;;13.00;99.90;;;;;;5028373;28;19917;-49
2021/06/11 01:38:38;;;;;;;;;;;13.00;99.90;;;;;;5029300;28;19920;-53
2021/06/11 01:41:05;;;;;;;;;;;13.00;99.90;;;;;;5029358;28;20008;-55
2021/06/11 01:43:31;;;;;;;;;;;13.00;99.90;;;;;;5029333;28;19915;-49
2021/06/11 01:45:57;;;;;;;;;;;13.00;99.90;;;;;;5028998;28;20355;-50
2021/06/11 01:48:23;;;;;;;;;;;13.00;99.90;;;;;;5029160;28;19955;-54
2021/06/11 01:50:50;;;;;;;;;;;13.00;99.90;;;;;;5029047;28;20174;-54
2021/06/11 01:53:19;;;;;;;;;;;12.90;99.90;;;;;;5029073;28;20012;-54
2021/06/11 01:55:45;;;;;;;;;;;13.00;99.90;;;;;;5028988;28;19991;-52
2021/06/11 01:58:11;;;;;;;;;;;12.90;99.90;;;;;;5029041;28;19909;-55
2021/06/11 02:00:37;;;;;;;;;;;12.90;99.90;;;;;;5028812;28;19909;-53
2021/06/11 02:03:03;;;;;;;;;;;12.90;99.90;;;;;;5028880;28;19932;-52
2021/06/11 02:05:29;;;;;;;;;;;12.90;99.90;;;;;;5027692;28;19910;-52
2021/06/11 02:07:55;;;;;;;;;;;12.90;99.90;;;;;;5028958;28;19909;-49
2021/06/11 02:10:22;;;;;;;;;;;12.90;99.90;;;;;;5028704;28;19909;-50
2021/06/11 02:12:48;;;;;;;;;;;12.90;99.90;;;;;;5028868;28;20450;-52
2021/06/11 02:15:14;;;;;;;;;;;12.80;99.90;;;;;;5028880;28;20012;-58
2021/06/11 02:17:44;;;;;;;;;;;12.80;99.90;;;;;;5029062;28;19920;-49
2021/06/11 02:20:14;;;;;;;;;;;12.70;99.90;;;;;;5028680;28;19913;-51
2021/06/11 02:22:40;;;;;;;;;;;12.80;99.90;;;;;;5028462;28;19913;-54
2021/06/11 02:25:06;;;;;;;;;;;12.80;99.90;;;;;;5028182;28;19962;-53
2021/06/11 02:27:32;;;;;;;;;;;12.70;99.90;;;;;;5028450;28;20406;-51
2021/06/11 02:29:58;;;;;;;;;;;12.70;99.90;;;;;;5027174;28;19909;-51
2021/06/11 02:32:24;;;;;;;;;;;12.70;99.90;;;;;;5028275;28;19913;-49
2021/06/11 02:34:50;;;;;;;;;;;12.60;99.90;;;;;;5028148;28;20540;-53
2021/06/11 02:37:15;;;;;;;;;;;12.60;99.90;;;;;;5028882;28;19995;-53
2021/06/11 02:39:40;;;;;;;;;;;12.60;99.90;;;;;;5028307;28;19917;-52
2021/06/11 02:42:07;;;;;;;;;;;12.60;99.90;;;;;;5028547;28;20422;-54
2021/06/11 02:44:34;;;;;;;;;;;12.60;99.90;;;;;;5027751;28;19917;-54
2021/06/11 02:47:11;;;;;;;;;;;12.60;99.90;;;;;;5028488;28;19932;-50
2021/06/11 02:49:39;;;;;;;;;;;12.60;99.90;;;;;;5027267;28;20405;-52
2021/06/11 02:52:06;;;;;;;;;;;12.60;99.90;;;;;;5027132;28;19916;-53
2021/06/11 02:54:34;;;;;;;;;;;12.60;99.90;;;;;;5027602;28;19910;-50
2021/06/11 02:57:03;;;;;;;;;;;12.60;99.90;;;;;;5027024;28;19917;-55
2021/06/11 02:59:48;;;;;;;;;;;12.60;99.90;;;;;;5028406;28;19920;-50
2021/06/11 03:02:26;;;;;;;;;;;12.50;99.90;;;;;;5028358;28;19959;-55
2021/06/11 03:04:53;;;;;;;;;;;12.50;99.90;;;;;;5027943;28;19992;-55
2021/06/11 03:07:28;;;;;;;;;;;12.50;99.90;;;;;;5026803;28;19920;-49
2021/06/11 03:09:55;;;;;;;;;;;12.50;99.90;;;;;;5028475;28;19916;-51
2021/06/11 03:12:21;;;;;;;;;;;12.50;99.90;;;;;;5026810;28;20497;-52
2021/06/11 03:14:47;;;;;;;;;;;12.50;99.90;;;;;;5027969;28;19916;-53
2021/06/11 03:17:14;;;;;;;;;;;12.50;99.90;;;;;;5031275;28;20367;-54
2021/06/11 03:19:41;;;;;;;;;;;12.50;99.90;;;;;;5032305;28;20016;-55
2021/06/11 03:22:10;;;;;;;;;;;12.50;99.90;;;;;;5032101;28;19959;-49
2021/06/11 03:24:55;;;;;;;;;;;12.50;99.90;;;;;;5026826;28;19909;-56
2021/06/11 03:27:22;;;;;;;;;;;12.40;99.90;;;;;;5027017;28;19913;-54
2021/06/11 03:29:54;;;;;;;;;;;12.50;99.90;;;;;;5031870;28;20470;-54
2021/06/11 03:32:24;;;;;;;;;;;12.40;99.90;;;;;;5030490;28;19994;-52
2021/06/11 03:34:52;;;;;;;;;;;12.40;99.90;;;;;;5028298;28;19920;-53
2021/06/11 03:37:18;;;;;;;;;;;12.40;99.90;;;;;;5073555;22;19929;-64
2021/06/11 03:40:01;;;;;;;;;;;12.50;99.90;;;;;;5050480;28;19913;-63
2021/06/11 03:42:28;;;;;;;;;;;12.40;99.90;;;;;;5045919;28;19924;-63
2021/06/11 03:44:55;;;;;;;;;;;12.50;99.90;;;;;;5051141;28;19909;-62
2021/06/11 03:47:21;;;;;;;;;;;12.50;99.90;;;;;;5031612;28;20402;-63
2021/06/11 03:49:48;;;;;;;;;;;12.50;99.90;;;;;;5031617;28;19924;-62
2021/06/11 03:52:14;;;;;;;;;;;12.60;99.90;;;;;;5031935;28;19991;-62
2021/06/11 03:54:44;;;;;;;;;;;12.60;99.90;;;;;;5031381;28;19995;-62
2021/06/11 03:57:10;;;;;;;;;;;12.60;99.90;;;;;;5031702;28;19909;-62
2021/06/11 03:59:36;;;;;;;;;;;12.70;99.90;;;;;;5031236;28;19913;-62
2021/06/11 04:02:02;;;;;;;;;;;12.70;99.90;;;;;;5031196;28;19913;-62
2021/06/11 04:04:28;;;;;;;;;;;12.80;99.90;;;;;;5031318;28;19910;-62
2021/06/11 04:07:09;;;;;;;;;;;12.80;99.90;;;;;;5027354;28;19910;-62
2021/06/11 04:09:42;;;;;;;;;;;12.90;99.90;;;;;;5031654;28;19909;-62
2021/06/11 04:12:08;;;;;;;;;;;12.90;99.90;;;;;;5031355;28;19917;-61
2021/06/11 04:14:37;;;;;;;;;;;13.00;99.90;;;;;;5030910;28;19971;-63
2021/06/11 04:17:04;;;;;;;;;;;13.00;99.90;;;;;;5030996;28;19910;-63
2021/06/11 04:19:38;;;;;;;;;;;13.10;99.90;;;;;;5046580;28;20007;-62
2021/06/11 04:22:04;;;;;;;;;;;13.10;99.90;;;;;;5031277;28;20047;-62
2021/06/11 04:24:31;;;;;;;;;;;13.10;99.90;;;;;;5029530;28;19962;-62
2021/06/11 04:26:57;;;;;;;;;;;13.20;99.90;;;;;;5030594;28;20327;-61
2021/06/11 04:29:23;;;;;;;;;;;13.20;99.90;;;;;;5030614;28;20295;-62
2021/06/11 04:31:52;;;;;;;;;;;13.20;99.90;;;;;;5031237;28;19909;-61
2021/06/11 04:34:18;;;;;;;;;;;13.30;99.90;;;;;;5030804;28;19920;-62
2021/06/11 04:36:44;;;;;;;;;;;13.40;99.90;;;;;;5029760;28;20000;-61
2021/06/11 04:39:09;;;;;;;;;;;13.40;99.90;;;;;;5028970;28;20004;-63
2021/06/11 04:41:36;;;;;;;;;;;13.50;99.90;;;;;;5031333;28;20410;-61
2021/06/11 04:44:02;;;;;;;;;;;13.60;99.90;;;;;;5030887;28;19932;-62
2021/06/11 04:46:27;;;;;;;;;;;13.70;99.90;;;;;;5030285;28;20314;-62
2021/06/11 04:48:53;;;;;;;;;;;13.80;99.90;;;;;;5030676;28;19916;-62
2021/06/11 04:51:18;;;;;;;;;;;13.90;99.90;;;;;;5030665;28;19956;-61
2021/06/11 04:53:44;;;;;;;;;;;14.00;99.90;;;;;;5030805;28;20381;-61
2021/06/11 04:56:10;;;;;;;;;;;14.10;99.90;;;;;;5030309;28;20334;-62
2021/06/11 04:58:37;;;;;;;;;;;14.10;99.90;;;;;;5030369;28;20334;-63
2021/06/11 05:01:03;;;;;;;;;;;14.20;99.90;;;;;;5030446;28;19909;-63
2021/06/11 05:03:29;;;;;;;;;;;14.20;99.90;;;;;;5028597;28;19909;-62
2021/06/11 05:05:54;;;;;;;;;;;14.30;99.90;;;;;;5030061;28;19915;-60
2021/06/11 05:08:20;;;;;;;;;;;14.40;99.90;;;;;;5045762;28;19975;-63
2021/06/11 05:10:45;;;;;;;;;;;14.50;99.90;;;;;;5030631;28;20435;-62
2021/06/11 05:13:11;;;;;;;;;;;14.50;99.90;;;;;;5045587;28;20403;-60
2021/06/11 05:15:36;;;;;;;;;;;14.70;99.90;;;;;;5029816;28;19966;-61
2021/06/11 05:18:03;;;;;;;;;;;14.80;99.90;;;;;;5030332;28;19909;-61
2021/06/11 05:20:28;;;;;;;;;;;14.90;99.90;;;;;;5029836;28;20360;-60
2021/06/11 05:22:54;;;;;;;;;;;15.00;99.90;;;;;;5030179;28;19924;-61
2021/06/11 05:25:19;;;;;;;;;;;15.20;99.90;;;;;;5028236;28;19910;-64
2021/06/11 05:27:45;;;;;;;;;;;15.30;99.90;;;;;;5030045;28;19948;-63
2021/06/11 05:30:10;;;;;;;;;;;15.50;99.90;;;;;;5030425;28;20002;-62
2021/06/11 05:32:36;;;;;;;;;;;15.60;99.90;;;;;;5029770;28;20375;-61
2021/06/11 05:35:01;;;;;;;;;;;15.80;99.90;;;;;;5029307;28;19955;-61
2021/06/11 05:37:27;;;;;;;;;;;15.90;99.90;;;;;;5029897;28;20385;-59
2021/06/11 05:39:52;;;;;;;;;;;16.00;99.90;;;;;;5028497;28;19913;-58
2021/06/11 05:42:18;;;;;;;;;;;16.20;99.90;;;;;;5029945;28;20007;-59
2021/06/11 05:44:43;;;;;;;;;;;16.40;99.90;;;;;;5027955;28;19971;-62
2021/06/11 05:47:09;;;;;;;;;;;16.50;99.90;;;;;;5028000;28;20004;-59
2021/06/11 05:49:34;;;;;;;;;;;16.70;99.90;;;;;;5029276;28;20383;-59
2021/06/11 05:52:00;;;;;;;;;;;17.00;99.90;;;;;;5029061;28;19909;-60
2021/06/11 05:54:25;;;;;;;;;;;17.20;99.90;;;;;;5027455;28;19920;-59
2021/06/11 05:56:51;;;;;;;;;;;17.30;99.90;;;;;;5029565;28;19915;-57
2021/06/11 05:59:16;;;;;;;;;;;17.50;99.90;;;;;;5028648;28;20317;-59
2021/06/11 06:01:42;;;;;;;;;;;17.70;99.90;;;;;;5028093;28;19952;-58
2021/06/11 06:04:07;;;;;;;;;;;18.00;99.90;;;;;;5043573;28;20399;-59
2021/06/11 06:06:33;;;;;;;;;;;18.20;99.90;;;;;;5032387;28;19959;-59
2021/06/11 06:08:58;;;;;;;;;;;18.40;99.90;;;;;;5028155;28;19916;-61
2021/06/11 06:11:24;;;;;;;;;;;18.60;99.90;;;;;;5023742;28;19913;-59
2021/06/11 06:13:50;;;;;;;;;;;18.80;99.90;;;;;;5025232;28;20290;-58
2021/06/11 06:16:15;;;;;;;;;;;19.00;99.90;;;;;;5024731;28;20311;-60
2021/06/11 06:18:43;;;;;;;;;;;19.10;99.90;;;;;;5024880;28;20003;-59
2021/06/11 06:21:09;;;;;;;;;;;19.40;99.90;;;;;;5028947;28;19909;-57
2021/06/11 06:23:34;;;;;;;;;;;19.50;99.90;;;;;;5029341;28;19909;-59
2021/06/11 06:26:00;;;;;;;;;;;19.70;99.90;;;;;;5028416;28;20268;-59
2021/06/11 06:28:25;;;;;;;;;;;19.90;99.90;;;;;;5028623;28;19999;-59
2021/06/11 06:30:51;;;;;;;;;;;20.10;99.90;;;;;;5027922;28;19913;-61
2021/06/11 06:33:16;;;;;;;;;;;20.40;99.90;;;;;;5028451;28;19913;-61
2021/06/11 06:35:42;;;;;;;;;;;20.50;99.90;;;;;;5027968;28;19917;-62
2021/06/11 06:38:10;;;;;;;;;;;20.70;99.90;;;;;;5027439;28;20406;-63
2021/06/11 06:40:36;;;;;;;;;;;20.90;99.90;;;;;;5028474;28;19909;-62
2021/06/11 06:43:02;;;;;;;;;;;21.00;99.90;;;;;;5028230;28;19909;-62
2021/06/11 06:45:27;;;;;;;;;;;21.20;99.90;;;;;;5028265;28;19915;-62
2021/06/11 06:47:53;;;;;;;;;;;21.30;99.90;;;;;;5028479;28;19916;-60
2021/06/11 06:50:19;;;;;;;;;;;21.50;99.90;;;;;;5028024;28;19909;-60
2021/06/11 06:52:45;;;;;;;;;;;21.70;99.90;;;;;;5028163;28;19909;-62
2021/06/11 06:55:11;;;;;;;;;;;21.90;99.90;;;;;;5027554;28;19971;-62
2021/06/11 06:57:36;;;;;;;;;;;22.10;99.90;;;;;;5028674;28;19914;-60
2021/06/11 07:00:03;;;;;;;;;;;22.30;99.90;;;;;;5028587;28;20385;-61
2021/06/11 07:02:29;;;;;;;;;;;22.40;99.90;;;;;;5028739;28;19916;-60
2021/06/11 07:04:54;;;;;;;;;;;22.60;99.90;;;;;;5028234;28;19909;-63
2021/06/11 07:07:20;;;;;;;;;;;22.60;99.90;;;;;;5028398;28;20055;-62
2021/06/11 07:09:45;;;;;;;;;;;22.70;99.90;;;;;;5028410;28;19914;-62
2021/06/11 07:12:11;;;;;;;;;;;22.90;99.90;;;;;;5027971;28;19909;-61
2021/06/11 07:14:37;;;;;;;;;;;23.10;99.90;;;;;;5027958;28;19936;-61
2021/06/11 07:17:05;;;;;;;;;;;23.20;99.90;;;;;;5027717;28;19957;-61
2021/06/11 07:19:31;;;;;;;;;;;23.30;99.80;;;;;;5027657;28;19913;-61
2021/06/11 07:21:57;;;;;;;;;;;23.60;98.70;;;;;;5027880;28;20409;-62
2021/06/11 07:24:22;;;;;;;;;;;23.80;98.10;;;;;;5026947;28;19935;-63
2021/06/11 07:26:48;;;;;;;;;;;23.90;98.10;;;;;;5026265;28;19916;-59
2021/06/11 07:29:13;;;;;;;;;;;24.10;96.50;;;;;;5026748;28;19916;-60
2021/06/11 07:31:38;;;;;;;;;;;24.20;98.20;;;;;;5025667;28;20555;-61
2021/06/11 07:34:04;;;;;;;;;;;24.40;96.80;;;;;;5025940;28;19916;-64
2021/06/11 07:36:29;;;;;;;;;;;24.30;95.50;;;;;;5026342;28;19917;-63
2021/06/11 07:38:55;;;;;;;;;;;24.50;94.90;;;;;;5026441;28;19921;-63
2021/06/11 07:41:21;;;;;;;;;;;24.70;95.90;;;;;;5026164;28;20000;-63
2021/06/11 07:43:50;;;;;;;;;;;24.90;95.60;;;;;;5027315;28;19935;-63
2021/06/11 07:46:16;;;;;;;;;;;25.00;91.70;;;;;;5024137;28;19915;-62
2021/06/11 07:48:41;;;;;;;;;;;25.20;93.10;;;;;;5027771;28;20333;-63
2021/06/11 07:51:07;;;;;;;;;;;25.40;92.40;;;;;;5027966;28;19932;-63
2021/06/11 07:53:32;;;;;;;;;;;25.60;92.50;;;;;;5027952;28;19909;-62
2021/06/11 07:55:57;;;;;;;;;;;25.80;90.00;;;;;;5027345;28;19921;-61
2021/06/11 07:58:23;;;;;;;;;;;25.90;89.20;;;;;;5027761;28;19916;-60
2021/06/11 08:00:48;;;;;;;;;;;26.00;92.30;;;;;;5027775;28;20524;-62
2021/06/11 08:03:14;;;;;;;;;;;26.10;90.70;;;;;;5027651;28;19909;-62
2021/06/11 08:05:39;;;;;;;;;;;26.20;87.80;;;;;;5031246;28;19916;-61
2021/06/11 08:08:06;;;;;;;;;;;26.20;89.70;;;;;;5031636;28;20261;-63
2021/06/11 08:10:31;;;;;;;;;;;26.40;90.60;;;;;;5029279;28;20368;-62
2021/06/11 08:12:57;;;;;;;;;;;26.50;86.10;;;;;;5031154;28;19920;-62
2021/06/11 08:15:22;;;;;;;;;;;26.70;81.60;;;;;;5031041;28;19971;-63
2021/06/11 08:17:48;;;;;;;;;;;26.80;83.30;;;;;;5031163;28;19916;-62
2021/06/11 08:20:13;;;;;;;;;;;26.90;79.80;;;;;;5031229;28;19933;-63
2021/06/11 08:22:39;;;;;;;;;;;27.00;80.30;;;;;;5031052;28;20012;-61
2021/06/11 08:25:08;;;;;;;;;;;27.00;79.10;;;;;;5031008;28;19929;-62
2021/06/11 08:27:34;;;;;;;;;;;27.10;80.60;;;;;;5030836;28;20051;-62
2021/06/11 08:30:00;;;;;;;;;;;27.30;76.80;;;;;;5031035;28;19917;-61
2021/06/11 08:32:26;;;;;;;;;;;27.40;78.40;;;;;;5030755;28;19935;-64
2021/06/11 08:34:51;;;;;;;;;;;27.60;77.40;;;;;;5030249;28;19920;-63
2021/06/11 08:37:19;;;;;;;;;;;27.60;74.80;;;;;;5030281;28;19924;-63
2021/06/11 08:39:47;;;;;;;;;;;27.50;74.20;;;;;;5029311;28;19913;-64
2021/06/11 08:42:13;;;;;;;;;;;27.60;75.20;;;;;;5031251;28;20284;-65
2021/06/11 08:44:41;;;;;;;;;;;27.70;73.50;;;;;;5030277;28;19971;-64
2021/06/11 08:47:07;;;;;;;;;;;27.80;76.60;;;;;;5030695;28;19910;-65
2021/06/11 08:49:33;;;;;;;;;;;27.80;73.70;;;;;;5030417;28;20070;-64
2021/06/11 08:51:59;;;;;;;;;;;28.10;75.90;;;;;;5046038;28;20439;-65
2021/06/11 08:54:27;;;;;;;;;;;28.20;72.00;;;;;;5030677;28;19963;-65
2021/06/11 08:56:53;;;;;;;;;;;28.10;71.00;;;;;;5027839;28;19958;-63
2021/06/11 08:59:19;;;;;;;;;;;28.20;71.00;;;;;;5030276;28;20007;-64
2021/06/11 09:01:44;;;;;;;;;;;28.20;73.90;;;;;;5030540;28;19940;-63
2021/06/11 09:04:10;;;;;;;;;;;28.30;73.00;;;;;;5029950;28;20367;-62
2021/06/11 09:06:35;;;;;;;;;;;28.20;70.60;;;;;;5030168;28;19909;-63
2021/06/11 09:09:02;;;;;;;;;;;28.30;71.80;;;;;;5030396;28;19987;-63
2021/06/11 09:11:29;;;;;;;;;;;28.30;73.10;;;;;;5030330;28;19913;-62
2021/06/11 09:14:07;;;;;;;;;;;28.10;70.20;;;;;;5029756;28;19909;-61
2021/06/11 09:16:43;;;;;;;;;;;27.80;68.50;;;;;;5029561;28;19995;-63
2021/06/11 09:19:13;;;;;;;;;;;27.90;72.80;;;;;;5028856;28;19920;-64
2021/06/11 09:21:38;;;;;;;;;;;28.20;71.80;;;;;;5029123;28;20272;-63
2021/06/11 09:24:24;;;;;;;;;;;28.30;68.90;;;;;;5029852;28;19916;-62
2021/06/11 09:26:56;;;;;;;;;;;28.50;70.90;;;;;;5029339;28;19915;-63
2021/06/11 09:29:23;;;;;;;;;;;28.80;68.90;;;;;;5028932;28;19909;-64
2021/06/11 09:31:49;;;;;;;;;;;28.90;70.60;;;;;;5030308;28;19909;-63
2021/06/11 09:34:28;;;;;;;;;;;28.90;68.90;;;;;;5028990;28;20310;-63
2021/06/11 09:36:57;;;;;;;;;;;29.00;70.30;;;;;;5057491;22;19931;-53
2021/06/11 09:39:23;;;;;;;;;;;29.20;69.90;;;;;;5048481;28;19925;-54
2021/06/11 09:42:01;;;;;;;;;;;29.30;69.50;;;;;;5049455;28;19916;-53
2021/06/11 09:44:27;;;;;;;;;;;29.30;68.40;;;;;;5045514;28;19916;-62
2021/06/11 09:46:53;;;;;;;;;;;29.30;69.60;;;;;;5048587;28;20365;-54
2021/06/11 09:49:19;;;;;;;;;;;29.10;68.10;;;;;;5029223;28;19932;-60
2021/06/11 09:52:01;;;;;;;;;;;29.20;73.00;;;;;;5039138;28;19940;-58
2021/06/11 09:54:27;;;;;;;;;;;29.10;70.30;;;;;;5029675;28;19909;-60
2021/06/11 09:56:54;;;;;;;;;;;29.20;69.80;;;;;;5037626;28;19938;-57
2021/06/11 09:59:39;;;;;;;;;;;29.30;67.20;;;;;;5037063;28;20372;-54
2021/06/11 10:02:14;;;;;;;;;;;29.20;67.60;;;;;;5032237;28;20338;-57
2021/06/11 10:04:43;;;;;;;;;;;29.00;70.00;;;;;;5032637;28;20457;-59
2021/06/11 10:07:12;;;;;;;;;;;29.40;69.90;;;;;;5029214;28;19917;-54
2021/06/11 10:09:39;;;;;;;;;;;29.40;66.70;;;;;;5028184;28;20008;-60
2021/06/11 10:12:05;;;;;;;;;;;29.50;66.70;;;;;;5029228;28;20397;-56
2021/06/11 10:14:31;;;;;;;;;;;29.50;66.30;;;;;;5028722;28;19909;-56
2021/06/11 10:16:56;;;;;;;;;;;29.40;66.90;;;;;;5029301;28;19919;-56
2021/06/11 10:19:22;;;;;;;;;;;29.40;66.50;;;;;;5028919;28;20007;-56
2021/06/11 10:21:48;;;;;;;;;;;29.40;68.30;;;;;;5029152;28;19956;-52
2021/06/11 10:24:14;;;;;;;;;;;29.00;68.80;;;;;;5028907;28;19909;-54
2021/06/11 10:26:43;;;;;;;;;;;29.30;69.80;;;;;;5028540;28;19936;-56
2021/06/11 10:29:12;;;;;;;;;;;29.10;66.20;;;;;;5029069;28;19928;-51
2021/06/11 10:31:38;;;;;;;;;;;29.00;64.90;;;;;;5027628;28;19917;-54
2021/06/11 10:34:04;;;;;;;;;;;28.90;67.40;;;;;;5028653;28;19909;-58
2021/06/11 10:36:34;;;;;;;;;;;28.70;67.30;;;;;;5029089;28;19909;-53
2021/06/11 10:39:00;;;;;;;;;;;28.60;68.00;;;;;;5028524;28;20268;-58
2021/06/11 10:41:26;;;;;;;;;;;28.50;69.40;;;;;;5028615;28;19909;-59
2021/06/11 10:43:52;;;;;;;;;;;28.70;68.50;;;;;;5028377;28;19917;-55
2021/06/11 10:46:30;;;;;;;;;;;28.70;67.40;;;;;;5028288;28;20406;-55
2021/06/11 10:48:56;;;;;;;;;;;28.90;66.70;;;;;;5027617;28;19909;-58
2021/06/11 10:51:46;;;;;;;;;;;28.70;65.60;;;;;;5028617;28;20406;-60
2021/06/11 10:54:24;;;;;;;;;;;28.90;68.20;;;;;;5028963;28;19909;-55
2021/06/11 10:57:12;;;;;;;;;;;29.20;69.20;;;;;;5028589;28;19909;-57
2021/06/11 10:59:39;;;;;;;;;;;29.50;67.00;;;;;;5027004;28;20004;-59
2021/06/11 11:02:05;;;;;;;;;;;29.40;66.70;;;;;;5028412;28;19995;-57
2021/06/11 11:04:35;;;;;;;;;;;29.40;68.10;;;;;;5028260;28;19940;-55
2021/06/11 11:07:19;;;;;;;;;;;29.40;67.50;;;;;;5028378;28;19916;-57
2021/06/11 11:09:55;;;;;;;;;;;29.30;66.10;;;;;;5028888;28;19995;-52
2021/06/11 11:12:21;;;;;;;;;;;28.90;68.00;;;;;;5024665;28;19944;-59
2021/06/11 11:14:47;;;;;;;;;;;28.50;67.40;;;;;;5024778;28;20449;-58
2021/06/11 11:17:13;;;;;;;;;;;28.20;68.00;;;;;;5017189;28;19914;-60
2021/06/11 11:19:58;;;;;;;;;;;28.20;68.50;;;;;;5031282;28;19917;-57
2021/06/11 11:22:33;;;;;;;;;;;28.50;68.90;;;;;;5031841;28;19913;-59
2021/06/11 11:25:02;;;;;;;;;;;28.80;69.60;;;;;;5037263;28;19909;-52
2021/06/11 11:27:27;;;;;;;;;;;28.90;68.80;;;;;;5032132;28;19957;-51
2021/06/11 11:29:54;;;;;;;;;;;29.20;68.50;;;;;;5037773;28;19944;-54
2021/06/11 11:32:19;;;;;;;;;;;29.40;66.80;;;;;;5029698;28;19935;-53
2021/06/11 11:34:45;;;;;;;;;;;29.40;66.40;;;;;;5037347;28;20672;-56
2021/06/11 11:37:13;;;;;;;;;;;29.60;69.20;;;;;;5030748;28;19917;-51
2021/06/11 11:39:40;;;;;;;;;;;29.70;65.30;;;;;;5039451;28;20035;-55
2021/06/11 11:42:06;;;;;;;;;;;29.50;64.90;;;;;;5041084;28;20370;-54
2021/06/11 11:44:33;;;;;;;;;;;29.50;65.90;;;;;;5036207;28;19909;-58
2021/06/11 11:46:59;;;;;;;;;;;29.30;65.70;;;;;;5021850;28;19970;-54
2021/06/11 11:49:24;;;;;;;;;;;29.20;65.00;;;;;;5033693;28;19937;-56
2021/06/11 11:51:50;;;;;;;;;;;29.10;65.70;;;;;;5038410;28;20432;-54
2021/06/11 11:54:16;;;;;;;;;;;29.10;66.20;;;;;;5031566;28;19916;-52
2021/06/11 11:56:41;;;;;;;;;;;28.90;66.10;;;;;;5038110;28;19909;-52
2021/06/11 11:59:07;;;;;;;;;;;29.00;65.30;;;;;;5035488;28;19919;-54
2021/06/11 12:01:39;;;;;;;;;;;28.70;63.20;;;;;;5034595;28;19913;-53
2021/06/11 12:04:05;;;;;;;;;;;28.80;65.00;;;;;;5035823;28;19909;-54
2021/06/11 12:06:31;;;;;;;;;;;29.20;67.10;;;;;;5031351;28;20328;-53
2021/06/11 12:08:56;;;;;;;;;;;29.20;66.00;;;;;;5031142;28;20446;-54
2021/06/11 12:11:22;;;;;;;;;;;29.20;66.70;;;;;;5031518;28;19917;-57
2021/06/11 12:13:48;;;;;;;;;;;29.20;65.70;;;;;;5031125;28;19913;-54
2021/06/11 12:16:14;;;;;;;;;;;29.10;66.30;;;;;;5031068;28;20007;-54
2021/06/11 12:18:39;;;;;;;;;;;29.30;67.80;;;;;;5031864;28;20335;-53
2021/06/11 12:21:07;;;;;;;;;;;29.30;65.20;;;;;;5031266;28;19909;-53
2021/06/11 12:23:33;;;;;;;;;;;29.30;66.50;;;;;;5031269;28;19913;-56
2021/06/11 12:25:58;;;;;;;;;;;29.20;65.40;;;;;;5031020;28;20004;-55
2021/06/11 12:28:24;;;;;;;;;;;28.90;65.70;;;;;;5031629;28;19909;-52
2021/06/11 12:30:50;;;;;;;;;;;28.90;66.70;;;;;;5031321;28;19932;-53
2021/06/11 12:33:15;;;;;;;;;;;28.70;66.20;;;;;;5030931;28;19909;-50
2021/06/11 12:35:41;;;;;;;;;;;28.50;67.50;;;;;;5031213;28;19960;-52
2021/06/11 12:38:06;;;;;;;;;;;28.30;67.30;;;;;;5030910;28;20415;-55
2021/06/11 12:40:32;;;;;;;;;;;28.40;69.30;;;;;;5031565;28;20330;-55
2021/06/11 12:43:03;;;;;;;;;;;28.60;67.60;;;;;;5030567;28;19940;-54
2021/06/11 12:45:29;;;;;;;;;;;28.30;66.20;;;;;;5034308;28;19913;-56
2021/06/11 12:47:55;;;;;;;;;;;28.40;67.60;;;;;;5030625;28;19963;-54
2021/06/11 12:50:20;;;;;;;;;;;28.70;69.80;;;;;;5030618;28;19909;-55
2021/06/11 12:52:45;;;;;;;;;;;28.90;68.10;;;;;;5025183;28;19967;-51
2021/06/11 12:55:11;;;;;;;;;;;29.00;66.20;;;;;;5023949;28;19916;-57
2021/06/11 12:57:38;;;;;;;;;;;29.00;67.40;;;;;;5020719;28;19910;-54
2021/06/11 13:00:04;;;;;;;;;;;28.80;67.10;;;;;;5027721;28;19912;-57
2021/06/11 13:02:29;;;;;;;;;;;28.60;66.80;;;;;;5033385;28;19913;-54
2021/06/11 13:04:55;;;;;;;;;;;28.20;68.20;;;;;;5033993;28;20375;-53
2021/06/11 13:07:21;;;;;;;;;;;28.40;69.10;;;;;;5030024;28;19913;-56
2021/06/11 13:09:46;;;;;;;;;;;28.50;66.70;;;;;;5030547;28;19916;-55
2021/06/11 13:12:12;;;;;;;;;;;28.50;69.10;;;;;;5028646;28;20004;-53
2021/06/11 13:14:37;;;;;;;;;;;28.60;68.20;;;;;;5028424;28;20573;-54
2021/06/11 13:17:03;;;;;;;;;;;28.60;67.60;;;;;;5029780;28;20414;-55
2021/06/11 13:19:29;;;;;;;;;;;28.70;68.40;;;;;;5029843;28;20434;-56
2021/06/11 13:21:55;;;;;;;;;;;28.70;68.00;;;;;;5030058;28;20395;-53
2021/06/11 13:24:20;;;;;;;;;;;28.70;67.50;;;;;;5029741;28;19917;-56
2021/06/11 13:26:46;;;;;;;;;;;28.80;67.10;;;;;;5029663;28;19917;-50
2021/06/11 13:29:11;;;;;;;;;;;28.60;65.20;;;;;;5029444;28;19917;-58
2021/06/11 13:31:38;;;;;;;;;;;28.20;66.80;;;;;;5029801;28;19962;-53
2021/06/11 13:34:04;;;;;;;;;;;28.20;69.60;;;;;;5027572;28;19913;-51
2021/06/11 13:36:29;;;;;;;;;;;28.20;69.20;;;;;;5028811;28;19963;-54
2021/06/11 13:38:55;;;;;;;;;;;28.30;69.50;;;;;;5029671;28;19966;-54
2021/06/11 13:41:21;;;;;;;;;;;28.50;69.20;;;;;;5029674;28;19956;-57
2021/06/11 13:43:47;;;;;;;;;;;28.60;70.40;;;;;;5029448;28;19917;-55
2021/06/11 13:46:13;;;;;;;;;;;28.60;68.10;;;;;;5025442;28;19909;-55
2021/06/11 13:48:38;;;;;;;;;;;28.70;67.50;;;;;;5029271;28;20382;-55
2021/06/11 13:51:04;;;;;;;;;;;28.50;67.80;;;;;;5027861;28;20291;-60
2021/06/11 13:53:31;;;;;;;;;;;28.40;69.50;;;;;;5029599;28;19964;-60
2021/06/11 13:55:57;;;;;;;;;;;28.40;67.60;;;;;;5029272;28;20012;-55
2021/06/11 13:58:22;;;;;;;;;;;28.30;67.50;;;;;;5029113;28;20004;-60
2021/06/11 14:00:48;;;;;;;;;;;28.20;68.90;;;;;;5020228;28;19917;-56
2021/06/11 14:03:13;;;;;;;;;;;28.20;69.00;;;;;;5034592;28;20387;-53
2021/06/11 14:05:39;;;;;;;;;;;28.20;69.50;;;;;;5029352;28;19913;-56
2021/06/11 14:08:05;;;;;;;;;;;28.20;69.40;;;;;;5029085;28;19909;-58
2021/06/11 14:10:31;;;;;;;;;;;28.20;69.70;;;;;;5028825;28;20368;-56
2021/06/11 14:12:56;;;;;;;;;;;28.10;70.10;;;;;;5028798;28;19909;-57
2021/06/11 14:15:22;;;;;;;;;;;27.90;69.70;;;;;;5028494;28;20003;-56